map of LTN home
LTN - Airport
Location
City:  London, Bedfordshire, England, United Kingdom
Name:Luton Airport
ICAO:EGGW
IATA:LTN

Details
Type:Airport (Aerodrome, Airfield)
Use:Public/Civil, International (customs port of entry)
Latitude:5152'29"N (51.874722)
Longitude:022'06"W (-0.368332)
Elevation:526 ft (160 m)
Variation:0.47W (WMM2015 magnetic declination)
0.15 annual change
Runways:1
Longest:7093 × 151 ft (2162 × 46 m), paved

Time
Time Zone:UTC+0 (DST+1)
Local Time:

Weather
METAR:EGGW 220350Z AUTO 25008KT 6000 NCD 14/13 Q1017
TAF:EGGW 212256Z 2200/2224 25005KT 9999 SCT030
TEMPO 2202/2208 8000 BKN006 PROB30
TEMPO 2203/2207 3000 BR BKN003

Related Locations
Nearby:
Farthest:CHT: 11845 mi / 19062 km
Waitangi [Tuuta], CIT, NZ

Find:

   beyond  
but within

Other Information
Maps:
NOTAMs:
Links:
Sources:

  
  • flag of United Kingdom
  • flag of England
  

Airport Diagram

Airport diagram for LTN

Airport diagram PDF

Sectional Chart

Flight Planning
at skyvector.com

Satellite Image

Google Maps Satellite view

 

Copyright © 2004-2018 Karl L. Swartz. All rights reserved.
The Great Circle Mapper name and logo are trademarks of the Great Circle Mapper.
All other trademarks mentioned herein belong to their respective owners.
Please see credits for attibutions and further copyright information.

  Follow gcmap on Facebook Follow gcmap on Twitter Follow gcmap on Google+ GCmap on LinkedIn

hCard Microformat

Geo Microformat